sensor_id;sensor_type;location;lat;lon;timestamp;P1;durP1;ratioP1;P2;durP2;ratioP2
37647;SDS011;23490;53.656;10.076;2023-05-10T00:00:59;8.77;;;2.53;;
37647;SDS011;23490;53.656;10.076;2023-05-10T00:03:24;5.00;;;2.33;;
37647;SDS011;23490;53.656;10.076;2023-05-10T00:05:50;5.30;;;2.78;;
37647;SDS011;23490;53.656;10.076;2023-05-10T00:08:15;6.85;;;2.53;;
37647;SDS011;23490;53.656;10.076;2023-05-10T00:10:40;7.60;;;2.53;;
37647;SDS011;23490;53.656;10.076;2023-05-10T00:13:06;4.55;;;2.60;;
37647;SDS011;23490;53.656;10.076;2023-05-10T00:15:31;6.40;;;2.90;;
37647;SDS011;23490;53.656;10.076;2023-05-10T00:17:57;5.50;;;2.50;;
37647;SDS011;23490;53.656;10.076;2023-05-10T00:20:22;5.60;;;2.67;;
37647;SDS011;23490;53.656;10.076;2023-05-10T00:22:48;4.90;;;2.47;;
37647;SDS011;23490;53.656;10.076;2023-05-10T00:25:13;8.00;;;2.70;;
37647;SDS011;23490;53.656;10.076;2023-05-10T00:27:39;6.28;;;2.78;;
37647;SDS011;23490;53.656;10.076;2023-05-10T00:30:04;4.18;;;2.55;;
37647;SDS011;23490;53.656;10.076;2023-05-10T00:32:30;6.75;;;2.60;;
37647;SDS011;23490;53.656;10.076;2023-05-10T00:34:57;4.80;;;2.28;;
37647;SDS011;23490;53.656;10.076;2023-05-10T00:37:24;5.32;;;3.03;;
37647;SDS011;23490;53.656;10.076;2023-05-10T00:39:49;4.60;;;2.28;;
37647;SDS011;23490;53.656;10.076;2023-05-10T00:42:15;6.13;;;2.58;;
37647;SDS011;23490;53.656;10.076;2023-05-10T00:44:40;6.95;;;2.53;;
37647;SDS011;23490;53.656;10.076;2023-05-10T00:47:05;5.80;;;2.83;;
37647;SDS011;23490;53.656;10.076;2023-05-10T00:49:31;8.15;;;2.90;;
37647;SDS011;23490;53.656;10.076;2023-05-10T00:51:57;5.88;;;2.40;;
37647;SDS011;23490;53.656;10.076;2023-05-10T00:54:25;5.25;;;2.83;;
37647;SDS011;23490;53.656;10.076;2023-05-10T00:56:50;3.97;;;2.47;;
37647;SDS011;23490;53.656;10.076;2023-05-10T00:59:16;4.60;;;2.17;;
37647;SDS011;23490;53.656;10.076;2023-05-10T01:01:44;6.78;;;2.95;;
37647;SDS011;23490;53.656;10.076;2023-05-10T01:04:11;5.95;;;2.88;;
37647;SDS011;23490;53.656;10.076;2023-05-10T01:06:37;6.22;;;2.70;;
37647;SDS011;23490;53.656;10.076;2023-05-10T01:09:03;5.53;;;2.88;;
37647;SDS011;23490;53.656;10.076;2023-05-10T01:11:29;6.40;;;2.83;;
37647;SDS011;23490;53.656;10.076;2023-05-10T01:13:55;4.90;;;2.70;;
37647;SDS011;23490;53.656;10.076;2023-05-10T01:16:23;4.28;;;2.40;;
37647;SDS011;23490;53.656;10.076;2023-05-10T01:18:49;5.45;;;2.30;;
37647;SDS011;23490;53.656;10.076;2023-05-10T01:32:33;5.60;;;2.78;;
37647;SDS011;23490;53.656;10.076;2023-05-10T01:35:07;4.88;;;2.55;;
37647;SDS011;23490;53.656;10.076;2023-05-10T01:38:08;5.88;;;2.65;;
37647;SDS011;23490;53.656;10.076;2023-05-10T01:41:08;4.53;;;2.60;;
37647;SDS011;23490;53.656;10.076;2023-05-10T01:44:24;5.35;;;2.72;;
37647;SDS011;23490;53.656;10.076;2023-05-10T01:46:41;6.43;;;2.75;;
37647;SDS011;23490;53.656;10.076;2023-05-10T01:49:09;4.03;;;2.40;;
37647;SDS011;23490;53.656;10.076;2023-05-10T01:51:50;7.80;;;3.10;;
37647;SDS011;23490;53.656;10.076;2023-05-10T01:54:20;10.00;;;2.97;;
37647;SDS011;23490;53.656;10.076;2023-05-10T01:56:52;5.75;;;2.90;;
37647;SDS011;23490;53.656;10.076;2023-05-10T01:59:23;6.18;;;2.75;;
37647;SDS011;23490;53.656;10.076;2023-05-10T02:01:54;10.40;;;2.58;;
37647;SDS011;23490;53.656;10.076;2023-05-10T02:04:23;5.40;;;2.50;;
37647;SDS011;23490;53.656;10.076;2023-05-10T02:06:50;3.95;;;2.47;;
37647;SDS011;23490;53.656;10.076;2023-05-10T02:09:18;5.75;;;3.28;;
37647;SDS011;23490;53.656;10.076;2023-05-10T02:11:44;10.02;;;3.00;;
37647;SDS011;23490;53.656;10.076;2023-05-10T02:14:12;3.67;;;2.40;;
37647;SDS011;23490;53.656;10.076;2023-05-10T02:16:40;5.93;;;3.22;;
37647;SDS011;23490;53.656;10.076;2023-05-10T02:19:07;5.75;;;2.72;;
37647;SDS011;23490;53.656;10.076;2023-05-10T02:21:34;5.82;;;2.60;;
37647;SDS011;23490;53.656;10.076;2023-05-10T02:24:01;6.15;;;2.65;;
37647;SDS011;23490;53.656;10.076;2023-05-10T02:26:28;7.50;;;2.97;;
37647;SDS011;23490;53.656;10.076;2023-05-10T02:28:54;7.75;;;2.40;;
37647;SDS011;23490;53.656;10.076;2023-05-10T02:31:23;4.25;;;2.53;;
37647;SDS011;23490;53.656;10.076;2023-05-10T02:33:49;6.35;;;2.58;;
37647;SDS011;23490;53.656;10.076;2023-05-10T02:36:18;5.20;;;3.03;;
37647;SDS011;23490;53.656;10.076;2023-05-10T02:38:46;6.78;;;2.58;;
37647;SDS011;23490;53.656;10.076;2023-05-10T02:41:13;7.40;;;2.90;;
37647;SDS011;23490;53.656;10.076;2023-05-10T02:43:39;5.18;;;2.72;;
37647;SDS011;23490;53.656;10.076;2023-05-10T02:46:06;6.28;;;2.70;;
37647;SDS011;23490;53.656;10.076;2023-05-10T02:48:33;6.60;;;3.13;;
37647;SDS011;23490;53.656;10.076;2023-05-10T02:51:00;5.97;;;2.67;;
37647;SDS011;23490;53.656;10.076;2023-05-10T02:53:31;5.28;;;2.55;;
37647;SDS011;23490;53.656;10.076;2023-05-10T02:56:03;5.70;;;2.60;;
37647;SDS011;23490;53.656;10.076;2023-05-10T02:58:32;6.32;;;2.60;;
37647;SDS011;23490;53.656;10.076;2023-05-10T03:00:57;6.75;;;3.10;;
37647;SDS011;23490;53.656;10.076;2023-05-10T03:03:23;4.93;;;2.58;;
37647;SDS011;23490;53.656;10.076;2023-05-10T03:05:48;4.35;;;2.42;;
37647;SDS011;23490;53.656;10.076;2023-05-10T03:08:13;5.45;;;2.88;;
37647;SDS011;23490;53.656;10.076;2023-05-10T03:10:41;6.20;;;3.10;;
37647;SDS011;23490;53.656;10.076;2023-05-10T03:13:37;5.45;;;2.67;;
37647;SDS011;23490;53.656;10.076;2023-05-10T03:18:56;6.13;;;2.90;;
37647;SDS011;23490;53.656;10.076;2023-05-10T03:26:30;5.53;;;2.70;;
37647;SDS011;23490;53.656;10.076;2023-05-10T03:28:55;7.18;;;2.55;;
37647;SDS011;23490;53.656;10.076;2023-05-10T03:31:24;5.40;;;2.95;;
37647;SDS011;23490;53.656;10.076;2023-05-10T03:33:50;7.65;;;3.10;;
37647;SDS011;23490;53.656;10.076;2023-05-10T03:36:17;6.03;;;2.80;;
37647;SDS011;23490;53.656;10.076;2023-05-10T03:38:43;4.85;;;2.65;;
37647;SDS011;23490;53.656;10.076;2023-05-10T03:41:08;9.55;;;2.67;;
37647;SDS011;23490;53.656;10.076;2023-05-10T03:43:33;5.25;;;2.58;;
37647;SDS011;23490;53.656;10.076;2023-05-10T03:46:01;5.15;;;3.00;;
37647;SDS011;23490;53.656;10.076;2023-05-10T03:48:27;5.28;;;2.80;;
37647;SDS011;23490;53.656;10.076;2023-05-10T03:50:53;7.28;;;3.03;;
37647;SDS011;23490;53.656;10.076;2023-05-10T03:53:18;4.10;;;2.75;;
37647;SDS011;23490;53.656;10.076;2023-05-10T03:55:44;7.10;;;3.15;;
37647;SDS011;23490;53.656;10.076;2023-05-10T03:58:11;7.03;;;2.90;;
37647;SDS011;23490;53.656;10.076;2023-05-10T04:00:36;5.53;;;2.60;;
37647;SDS011;23490;53.656;10.076;2023-05-10T04:03:02;5.25;;;2.75;;
37647;SDS011;23490;53.656;10.076;2023-05-10T04:05:27;6.95;;;2.72;;
37647;SDS011;23490;53.656;10.076;2023-05-10T04:07:53;4.90;;;2.70;;
37647;SDS011;23490;53.656;10.076;2023-05-10T04:10:19;3.95;;;2.20;;
37647;SDS011;23490;53.656;10.076;2023-05-10T04:12:45;4.18;;;2.50;;
37647;SDS011;23490;53.656;10.076;2023-05-10T04:15:10;5.93;;;3.00;;
37647;SDS011;23490;53.656;10.076;2023-05-10T04:17:37;4.15;;;2.53;;
37647;SDS011;23490;53.656;10.076;2023-05-10T04:20:03;5.80;;;2.90;;
37647;SDS011;23490;53.656;10.076;2023-05-10T04:22:29;5.93;;;2.60;;
37647;SDS011;23490;53.656;10.076;2023-05-10T04:24:54;5.70;;;2.83;;
37647;SDS011;23490;53.656;10.076;2023-05-10T04:27:20;4.72;;;3.00;;
37647;SDS011;23490;53.656;10.076;2023-05-10T04:29:45;8.23;;;2.95;;
37647;SDS011;23490;53.656;10.076;2023-05-10T04:32:11;5.03;;;2.70;;
37647;SDS011;23490;53.656;10.076;2023-05-10T04:34:37;5.88;;;3.08;;
37647;SDS011;23490;53.656;10.076;2023-05-10T04:37:02;5.80;;;3.33;;
37647;SDS011;23490;53.656;10.076;2023-05-10T04:39:28;5.07;;;2.75;;
37647;SDS011;23490;53.656;10.076;2023-05-10T04:41:53;4.68;;;2.60;;
37647;SDS011;23490;53.656;10.076;2023-05-10T04:44:18;6.53;;;2.85;;
37647;SDS011;23490;53.656;10.076;2023-05-10T04:46:44;7.25;;;2.97;;
37647;SDS011;23490;53.656;10.076;2023-05-10T04:49:10;5.85;;;3.15;;
37647;SDS011;23490;53.656;10.076;2023-05-10T04:51:37;5.10;;;2.92;;
37647;SDS011;23490;53.656;10.076;2023-05-10T04:54:02;6.65;;;3.33;;
37647;SDS011;23490;53.656;10.076;2023-05-10T04:56:27;5.10;;;2.33;;
37647;SDS011;23490;53.656;10.076;2023-05-10T04:58:54;5.50;;;2.72;;
37647;SDS011;23490;53.656;10.076;2023-05-10T05:01:19;5.90;;;3.03;;
37647;SDS011;23490;53.656;10.076;2023-05-10T05:03:44;5.43;;;2.72;;
37647;SDS011;23490;53.656;10.076;2023-05-10T05:06:10;6.47;;;3.15;;
37647;SDS011;23490;53.656;10.076;2023-05-10T05:08:35;6.50;;;2.97;;
37647;SDS011;23490;53.656;10.076;2023-05-10T05:11:00;6.20;;;2.88;;
37647;SDS011;23490;53.656;10.076;2023-05-10T05:13:26;8.43;;;3.20;;
37647;SDS011;23490;53.656;10.076;2023-05-10T05:15:51;5.68;;;3.08;;
37647;SDS011;23490;53.656;10.076;2023-05-10T05:18:16;6.32;;;2.95;;
37647;SDS011;23490;53.656;10.076;2023-05-10T05:20:42;4.93;;;3.13;;
37647;SDS011;23490;53.656;10.076;2023-05-10T05:23:10;6.75;;;3.00;;
37647;SDS011;23490;53.656;10.076;2023-05-10T05:25:35;5.70;;;3.35;;
37647;SDS011;23490;53.656;10.076;2023-05-10T05:28:01;4.90;;;2.88;;
37647;SDS011;23490;53.656;10.076;2023-05-10T05:30:26;5.65;;;2.70;;
37647;SDS011;23490;53.656;10.076;2023-05-10T05:32:51;8.15;;;2.92;;
37647;SDS011;23490;53.656;10.076;2023-05-10T05:35:17;4.72;;;3.00;;
37647;SDS011;23490;53.656;10.076;2023-05-10T05:37:42;5.10;;;2.53;;
37647;SDS011;23490;53.656;10.076;2023-05-10T05:40:12;6.15;;;3.25;;
37647;SDS011;23490;53.656;10.076;2023-05-10T05:42:38;8.75;;;3.08;;
37647;SDS011;23490;53.656;10.076;2023-05-10T05:45:04;8.32;;;3.22;;
37647;SDS011;23490;53.656;10.076;2023-05-10T05:47:31;6.35;;;2.75;;
37647;SDS011;23490;53.656;10.076;2023-05-10T05:49:59;5.93;;;3.00;;
37647;SDS011;23490;53.656;10.076;2023-05-10T05:52:24;6.50;;;2.83;;
37647;SDS011;23490;53.656;10.076;2023-05-10T05:54:49;3.97;;;2.38;;
37647;SDS011;23490;53.656;10.076;2023-05-10T05:57:15;5.32;;;2.90;;
37647;SDS011;23490;53.656;10.076;2023-05-10T05:59:42;6.40;;;3.17;;
37647;SDS011;23490;53.656;10.076;2023-05-10T06:02:10;4.90;;;2.78;;
37647;SDS011;23490;53.656;10.076;2023-05-10T06:04:35;5.35;;;3.10;;
37647;SDS011;23490;53.656;10.076;2023-05-10T06:07:01;5.00;;;3.03;;
37647;SDS011;23490;53.656;10.076;2023-05-10T06:09:26;5.25;;;2.90;;
37647;SDS011;23490;53.656;10.076;2023-05-10T06:11:51;4.30;;;2.47;;
37647;SDS011;23490;53.656;10.076;2023-05-10T06:14:16;5.20;;;3.10;;
37647;SDS011;23490;53.656;10.076;2023-05-10T06:16:42;4.90;;;2.88;;
37647;SDS011;23490;53.656;10.076;2023-05-10T06:19:12;6.07;;;2.92;;
37647;SDS011;23490;53.656;10.076;2023-05-10T06:21:37;4.30;;;2.80;;
37647;SDS011;23490;53.656;10.076;2023-05-10T06:24:03;8.05;;;3.20;;
37647;SDS011;23490;53.656;10.076;2023-05-10T06:26:28;5.18;;;3.10;;
37647;SDS011;23490;53.656;10.076;2023-05-10T06:28:53;6.20;;;2.80;;
37647;SDS011;23490;53.656;10.076;2023-05-10T06:31:20;4.78;;;3.15;;
37647;SDS011;23490;53.656;10.076;2023-05-10T06:33:45;5.32;;;3.05;;
37647;SDS011;23490;53.656;10.076;2023-05-10T06:36:12;7.05;;;2.60;;
37647;SDS011;23490;53.656;10.076;2023-05-10T06:38:38;4.32;;;2.67;;
37647;SDS011;23490;53.656;10.076;2023-05-10T06:41:04;6.60;;;2.85;;
37647;SDS011;23490;53.656;10.076;2023-05-10T06:43:29;7.68;;;3.40;;
37647;SDS011;23490;53.656;10.076;2023-05-10T06:45:55;6.47;;;3.05;;
37647;SDS011;23490;53.656;10.076;2023-05-10T06:48:20;5.95;;;2.90;;
37647;SDS011;23490;53.656;10.076;2023-05-10T06:50:46;6.20;;;2.80;;
37647;SDS011;23490;53.656;10.076;2023-05-10T06:53:11;5.03;;;2.97;;
37647;SDS011;23490;53.656;10.076;2023-05-10T06:55:37;5.50;;;3.03;;
37647;SDS011;23490;53.656;10.076;2023-05-10T06:58:02;4.82;;;2.95;;
37647;SDS011;23490;53.656;10.076;2023-05-10T07:00:29;10.13;;;3.00;;
37647;SDS011;23490;53.656;10.076;2023-05-10T07:02:54;4.82;;;3.00;;
37647;SDS011;23490;53.656;10.076;2023-05-10T07:05:20;6.28;;;3.30;;
37647;SDS011;23490;53.656;10.076;2023-05-10T07:07:45;5.10;;;3.10;;
37647;SDS011;23490;53.656;10.076;2023-05-10T07:10:11;5.43;;;2.95;;
37647;SDS011;23490;53.656;10.076;2023-05-10T07:12:36;6.88;;;3.13;;
37647;SDS011;23490;53.656;10.076;2023-05-10T07:15:01;5.22;;;3.00;;
37647;SDS011;23490;53.656;10.076;2023-05-10T07:17:27;5.20;;;3.00;;
37647;SDS011;23490;53.656;10.076;2023-05-10T07:19:52;5.90;;;3.50;;
37647;SDS011;23490;53.656;10.076;2023-05-10T07:22:17;4.82;;;3.00;;
37647;SDS011;23490;53.656;10.076;2023-05-10T07:24:43;5.47;;;2.97;;
37647;SDS011;23490;53.656;10.076;2023-05-10T07:27:09;4.15;;;2.88;;
37647;SDS011;23490;53.656;10.076;2023-05-10T07:29:35;8.98;;;3.22;;
37647;SDS011;23490;53.656;10.076;2023-05-10T07:32:02;4.80;;;2.97;;
37647;SDS011;23490;53.656;10.076;2023-05-10T07:34:27;7.15;;;2.85;;
37647;SDS011;23490;53.656;10.076;2023-05-10T07:36:56;7.00;;;3.28;;
37647;SDS011;23490;53.656;10.076;2023-05-10T07:39:23;5.80;;;3.22;;
37647;SDS011;23490;53.656;10.076;2023-05-10T07:41:48;8.02;;;2.75;;
37647;SDS011;23490;53.656;10.076;2023-05-10T07:44:14;7.18;;;3.15;;
37647;SDS011;23490;53.656;10.076;2023-05-10T07:46:39;5.93;;;3.70;;
37647;SDS011;23490;53.656;10.076;2023-05-10T07:49:05;5.00;;;2.42;;
37647;SDS011;23490;53.656;10.076;2023-05-10T07:51:30;4.88;;;2.70;;
37647;SDS011;23490;53.656;10.076;2023-05-10T07:53:57;6.60;;;3.00;;
37647;SDS011;23490;53.656;10.076;2023-05-10T07:56:26;6.15;;;2.67;;
37647;SDS011;23490;53.656;10.076;2023-05-10T07:58:55;8.10;;;3.60;;
37647;SDS011;23490;53.656;10.076;2023-05-10T08:01:21;6.20;;;3.28;;
37647;SDS011;23490;53.656;10.076;2023-05-10T08:03:47;4.18;;;2.60;;
37647;SDS011;23490;53.656;10.076;2023-05-10T08:06:14;5.68;;;2.88;;
37647;SDS011;23490;53.656;10.076;2023-05-10T08:08:40;4.18;;;2.83;;
37647;SDS011;23490;53.656;10.076;2023-05-10T08:11:06;4.22;;;2.60;;
37647;SDS011;23490;53.656;10.076;2023-05-10T08:13:32;11.68;;;3.60;;
37647;SDS011;23490;53.656;10.076;2023-05-10T08:15:59;5.00;;;3.10;;
37647;SDS011;23490;53.656;10.076;2023-05-10T08:18:24;7.18;;;3.10;;
37647;SDS011;23490;53.656;10.076;2023-05-10T08:20:49;6.10;;;2.60;;
37647;SDS011;23490;53.656;10.076;2023-05-10T08:23:15;5.20;;;2.85;;
37647;SDS011;23490;53.656;10.076;2023-05-10T08:25:40;6.22;;;3.10;;
37647;SDS011;23490;53.656;10.076;2023-05-10T08:28:06;4.47;;;2.63;;
37647;SDS011;23490;53.656;10.076;2023-05-10T08:30:31;5.22;;;2.65;;
37647;SDS011;23490;53.656;10.076;2023-05-10T08:32:57;5.22;;;2.90;;
37647;SDS011;23490;53.656;10.076;2023-05-10T08:35:22;6.25;;;2.80;;
37647;SDS011;23490;53.656;10.076;2023-05-10T08:37:50;7.13;;;4.03;;
37647;SDS011;23490;53.656;10.076;2023-05-10T08:40:16;6.35;;;2.75;;
37647;SDS011;23490;53.656;10.076;2023-05-10T08:42:51;4.93;;;3.05;;
37647;SDS011;23490;53.656;10.076;2023-05-10T08:45:22;6.30;;;2.75;;
37647;SDS011;23490;53.656;10.076;2023-05-10T08:47:49;6.55;;;3.15;;
37647;SDS011;23490;53.656;10.076;2023-05-10T08:50:16;4.75;;;2.97;;
37647;SDS011;23490;53.656;10.076;2023-05-10T08:52:44;7.20;;;3.28;;
37647;SDS011;23490;53.656;10.076;2023-05-10T08:55:12;6.35;;;3.15;;
37647;SDS011;23490;53.656;10.076;2023-05-10T08:57:38;5.93;;;3.38;;
37647;SDS011;23490;53.656;10.076;2023-05-10T09:00:03;6.15;;;3.00;;
37647;SDS011;23490;53.656;10.076;2023-05-10T09:02:30;4.40;;;2.85;;
37647;SDS011;23490;53.656;10.076;2023-05-10T09:04:56;6.88;;;2.80;;
37647;SDS011;23490;53.656;10.076;2023-05-10T09:07:21;5.18;;;3.08;;
37647;SDS011;23490;53.656;10.076;2023-05-10T09:09:47;7.15;;;3.00;;
37647;SDS011;23490;53.656;10.076;2023-05-10T09:12:14;6.15;;;2.92;;
37647;SDS011;23490;53.656;10.076;2023-05-10T09:14:41;5.47;;;3.25;;
37647;SDS011;23490;53.656;10.076;2023-05-10T09:17:08;5.65;;;2.85;;
37647;SDS011;23490;53.656;10.076;2023-05-10T09:19:34;4.85;;;3.08;;
37647;SDS011;23490;53.656;10.076;2023-05-10T09:21:59;7.80;;;3.17;;
37647;SDS011;23490;53.656;10.076;2023-05-10T09:24:26;4.97;;;3.03;;
37647;SDS011;23490;53.656;10.076;2023-05-10T09:26:52;5.45;;;3.25;;
37647;SDS011;23490;53.656;10.076;2023-05-10T09:29:18;6.28;;;4.03;;
37647;SDS011;23490;53.656;10.076;2023-05-10T09:31:47;6.38;;;3.38;;
37647;SDS011;23490;53.656;10.076;2023-05-10T09:34:19;6.32;;;2.95;;
37647;SDS011;23490;53.656;10.076;2023-05-10T09:36:54;5.25;;;3.03;;
37647;SDS011;23490;53.656;10.076;2023-05-10T09:39:29;6.57;;;3.17;;
37647;SDS011;23490;53.656;10.076;2023-05-10T09:41:57;6.68;;;3.20;;
37647;SDS011;23490;53.656;10.076;2023-05-10T09:44:23;5.13;;;2.83;;
37647;SDS011;23490;53.656;10.076;2023-05-10T09:46:50;7.50;;;2.92;;
37647;SDS011;23490;53.656;10.076;2023-05-10T09:49:17;5.53;;;3.28;;
37647;SDS011;23490;53.656;10.076;2023-05-10T09:51:43;7.30;;;3.40;;
37647;SDS011;23490;53.656;10.076;2023-05-10T09:54:13;6.00;;;3.70;;
37647;SDS011;23490;53.656;10.076;2023-05-10T09:56:40;7.28;;;3.17;;
37647;SDS011;23490;53.656;10.076;2023-05-10T09:59:08;14.55;;;3.75;;
37647;SDS011;23490;53.656;10.076;2023-05-10T10:01:35;5.22;;;3.63;;
37647;SDS011;23490;53.656;10.076;2023-05-10T10:04:02;7.38;;;3.92;;
37647;SDS011;23490;53.656;10.076;2023-05-10T10:06:29;7.15;;;3.22;;
37647;SDS011;23490;53.656;10.076;2023-05-10T10:08:58;8.38;;;4.03;;
37647;SDS011;23490;53.656;10.076;2023-05-10T10:11:23;6.50;;;4.15;;
37647;SDS011;23490;53.656;10.076;2023-05-10T10:13:49;6.80;;;3.67;;
37647;SDS011;23490;53.656;10.076;2023-05-10T10:16:14;5.35;;;3.42;;
37647;SDS011;23490;53.656;10.076;2023-05-10T10:18:40;5.97;;;3.92;;
37647;SDS011;23490;53.656;10.076;2023-05-10T10:21:07;9.00;;;3.83;;
37647;SDS011;23490;53.656;10.076;2023-05-10T10:23:36;7.65;;;4.18;;
37647;SDS011;23490;53.656;10.076;2023-05-10T10:26:03;6.15;;;3.58;;
37647;SDS011;23490;53.656;10.076;2023-05-10T10:28:33;7.75;;;4.28;;
37647;SDS011;23490;53.656;10.076;2023-05-10T10:36:50;7.78;;;4.70;;
37647;SDS011;23490;53.656;10.076;2023-05-10T10:39:15;8.77;;;4.57;;
37647;SDS011;23490;53.656;10.076;2023-05-10T10:49:49;10.45;;;5.43;;
37647;SDS011;23490;53.656;10.076;2023-05-10T10:55:11;9.98;;;5.93;;
37647;SDS011;23490;53.656;10.076;2023-05-10T11:00:23;9.27;;;5.82;;
37647;SDS011;23490;53.656;10.076;2023-05-10T11:05:36;10.55;;;5.80;;
37647;SDS011;23490;53.656;10.076;2023-05-10T11:16:21;9.15;;;6.32;;
37647;SDS011;23490;53.656;10.076;2023-05-10T11:19:07;7.85;;;6.00;;
37647;SDS011;23490;53.656;10.076;2023-05-10T11:21:34;10.90;;;5.32;;
37647;SDS011;23490;53.656;10.076;2023-05-10T11:24:29;9.65;;;6.03;;
37647;SDS011;23490;53.656;10.076;2023-05-10T11:26:54;8.52;;;5.45;;
37647;SDS011;23490;53.656;10.076;2023-05-10T11:29:20;11.38;;;6.40;;
37647;SDS011;23490;53.656;10.076;2023-05-10T11:31:45;11.15;;;6.07;;
37647;SDS011;23490;53.656;10.076;2023-05-10T11:34:33;14.15;;;7.03;;
37647;SDS011;23490;53.656;10.076;2023-05-10T11:36:59;9.43;;;5.90;;
37647;SDS011;23490;53.656;10.076;2023-05-10T11:39:28;10.15;;;6.40;;
37647;SDS011;23490;53.656;10.076;2023-05-10T11:41:55;8.52;;;5.75;;
37647;SDS011;23490;53.656;10.076;2023-05-10T11:44:22;8.82;;;6.60;;
37647;SDS011;23490;53.656;10.076;2023-05-10T11:46:47;8.93;;;5.90;;
37647;SDS011;23490;53.656;10.076;2023-05-10T11:49:15;8.38;;;6.07;;
37647;SDS011;23490;53.656;10.076;2023-05-10T11:51:40;10.23;;;5.65;;
37647;SDS011;23490;53.656;10.076;2023-05-10T11:54:09;9.73;;;6.28;;
37647;SDS011;23490;53.656;10.076;2023-05-10T11:56:39;14.57;;;5.93;;
37647;SDS011;23490;53.656;10.076;2023-05-10T11:59:05;9.35;;;5.80;;
37647;SDS011;23490;53.656;10.076;2023-05-10T12:01:31;10.10;;;5.95;;
37647;SDS011;23490;53.656;10.076;2023-05-10T12:03:57;8.10;;;5.72;;
37647;SDS011;23490;53.656;10.076;2023-05-10T12:06:29;10.50;;;6.03;;
37647;SDS011;23490;53.656;10.076;2023-05-10T12:08:57;9.07;;;5.60;;
37647;SDS011;23490;53.656;10.076;2023-05-10T12:11:26;8.88;;;5.57;;
37647;SDS011;23490;53.656;10.076;2023-05-10T12:13:53;9.05;;;5.90;;
37647;SDS011;23490;53.656;10.076;2023-05-10T12:16:20;12.25;;;7.72;;
37647;SDS011;23490;53.656;10.076;2023-05-10T12:18:53;12.93;;;7.15;;
37647;SDS011;23490;53.656;10.076;2023-05-10T12:21:21;9.45;;;7.10;;
37647;SDS011;23490;53.656;10.076;2023-05-10T12:23:51;12.20;;;7.57;;
37647;SDS011;23490;53.656;10.076;2023-05-10T12:26:21;10.48;;;6.93;;
37647;SDS011;23490;53.656;10.076;2023-05-10T12:28:47;10.93;;;7.90;;
37647;SDS011;23490;53.656;10.076;2023-05-10T12:31:13;11.20;;;8.02;;
37647;SDS011;23490;53.656;10.076;2023-05-10T12:33:42;10.30;;;7.80;;
37647;SDS011;23490;53.656;10.076;2023-05-10T12:38:39;10.43;;;7.43;;
37647;SDS011;23490;53.656;10.076;2023-05-10T12:41:11;11.52;;;7.88;;
37647;SDS011;23490;53.656;10.076;2023-05-10T12:43:40;10.20;;;7.97;;
37647;SDS011;23490;53.656;10.076;2023-05-10T12:46:09;10.02;;;8.05;;
37647;SDS011;23490;53.656;10.076;2023-05-10T12:51:02;10.60;;;7.80;;
37647;SDS011;23490;53.656;10.076;2023-05-10T12:53:28;10.27;;;7.32;;
37647;SDS011;23490;53.656;10.076;2023-05-10T12:55:53;11.10;;;7.53;;
37647;SDS011;23490;53.656;10.076;2023-05-10T12:58:19;8.70;;;6.35;;
37647;SDS011;23490;53.656;10.076;2023-05-10T13:00:46;9.27;;;6.90;;
37647;SDS011;23490;53.656;10.076;2023-05-10T13:03:12;9.32;;;6.72;;
37647;SDS011;23490;53.656;10.076;2023-05-10T13:05:37;9.25;;;6.45;;
37647;SDS011;23490;53.656;10.076;2023-05-10T13:08:03;11.07;;;6.60;;
37647;SDS011;23490;53.656;10.076;2023-05-10T13:10:31;8.90;;;6.05;;
37647;SDS011;23490;53.656;10.076;2023-05-10T13:12:57;10.32;;;6.10;;
37647;SDS011;23490;53.656;10.076;2023-05-10T13:15:23;8.40;;;5.53;;
37647;SDS011;23490;53.656;10.076;2023-05-10T13:17:49;8.93;;;6.15;;
37647;SDS011;23490;53.656;10.076;2023-05-10T13:20:15;10.13;;;6.57;;
37647;SDS011;23490;53.656;10.076;2023-05-10T13:22:41;10.45;;;6.63;;
37647;SDS011;23490;53.656;10.076;2023-05-10T13:25:07;7.70;;;5.63;;
37647;SDS011;23490;53.656;10.076;2023-05-10T13:27:36;7.95;;;5.63;;
37647;SDS011;23490;53.656;10.076;2023-05-10T13:30:03;8.70;;;6.30;;
37647;SDS011;23490;53.656;10.076;2023-05-10T13:32:29;8.70;;;5.65;;
37647;SDS011;23490;53.656;10.076;2023-05-10T13:34:54;8.50;;;5.07;;
37647;SDS011;23490;53.656;10.076;2023-05-10T13:37:21;7.32;;;4.60;;
37647;SDS011;23490;53.656;10.076;2023-05-10T13:39:47;6.32;;;4.82;;
37647;SDS011;23490;53.656;10.076;2023-05-10T13:42:13;6.90;;;4.38;;
37647;SDS011;23490;53.656;10.076;2023-05-10T13:44:38;6.20;;;4.53;;
37647;SDS011;23490;53.656;10.076;2023-05-10T13:47:07;7.00;;;5.18;;
37647;SDS011;23490;53.656;10.076;2023-05-10T13:49:33;8.18;;;5.10;;
37647;SDS011;23490;53.656;10.076;2023-05-10T13:52:00;8.32;;;4.85;;
37647;SDS011;23490;53.656;10.076;2023-05-10T13:54:31;5.90;;;4.15;;
37647;SDS011;23490;53.656;10.076;2023-05-10T13:56:57;8.73;;;4.95;;
37647;SDS011;23490;53.656;10.076;2023-05-10T13:59:24;5.65;;;4.43;;
37647;SDS011;23490;53.656;10.076;2023-05-10T14:01:49;7.55;;;4.85;;
37647;SDS011;23490;53.656;10.076;2023-05-10T14:04:14;7.57;;;5.65;;
37647;SDS011;23490;53.656;10.076;2023-05-10T14:06:40;7.72;;;4.97;;
37647;SDS011;23490;53.656;10.076;2023-05-10T14:09:05;7.05;;;5.43;;
37647;SDS011;23490;53.656;10.076;2023-05-10T14:11:30;8.45;;;4.85;;
37647;SDS011;23490;53.656;10.076;2023-05-10T14:13:56;6.88;;;4.82;;
37647;SDS011;23490;53.656;10.076;2023-05-10T14:16:22;6.20;;;4.18;;
37647;SDS011;23490;53.656;10.076;2023-05-10T14:18:47;7.22;;;4.68;;
37647;SDS011;23490;53.656;10.076;2023-05-10T14:21:13;7.10;;;4.45;;
37647;SDS011;23490;53.656;10.076;2023-05-10T14:23:38;6.72;;;4.35;;
37647;SDS011;23490;53.656;10.076;2023-05-10T14:26:04;6.85;;;4.75;;
37647;SDS011;23490;53.656;10.076;2023-05-10T14:28:29;6.15;;;4.50;;
37647;SDS011;23490;53.656;10.076;2023-05-10T14:30:55;9.02;;;4.57;;
37647;SDS011;23490;53.656;10.076;2023-05-10T14:33:20;7.07;;;4.85;;
37647;SDS011;23490;53.656;10.076;2023-05-10T14:35:46;6.43;;;4.80;;
37647;SDS011;23490;53.656;10.076;2023-05-10T14:38:12;8.77;;;4.60;;
37647;SDS011;23490;53.656;10.076;2023-05-10T14:40:38;7.20;;;4.88;;
37647;SDS011;23490;53.656;10.076;2023-05-10T14:43:03;6.25;;;4.57;;
37647;SDS011;23490;53.656;10.076;2023-05-10T14:45:29;8.50;;;4.88;;
37647;SDS011;23490;53.656;10.076;2023-05-10T14:47:55;5.95;;;4.32;;
37647;SDS011;23490;53.656;10.076;2023-05-10T14:50:20;6.32;;;4.85;;
37647;SDS011;23490;53.656;10.076;2023-05-10T14:52:47;8.88;;;4.47;;
37647;SDS011;23490;53.656;10.076;2023-05-10T14:55:13;5.32;;;3.83;;
37647;SDS011;23490;53.656;10.076;2023-05-10T14:57:38;5.38;;;3.63;;
37647;SDS011;23490;53.656;10.076;2023-05-10T15:00:04;6.20;;;4.22;;
37647;SDS011;23490;53.656;10.076;2023-05-10T15:02:30;5.85;;;4.03;;
37647;SDS011;23490;53.656;10.076;2023-05-10T15:04:56;7.10;;;4.88;;
37647;SDS011;23490;53.656;10.076;2023-05-10T15:07:22;8.27;;;4.45;;
37647;SDS011;23490;53.656;10.076;2023-05-10T15:09:49;5.97;;;4.28;;
37647;SDS011;23490;53.656;10.076;2023-05-10T15:12:16;6.03;;;3.92;;
37647;SDS011;23490;53.656;10.076;2023-05-10T15:14:42;5.93;;;4.13;;
37647;SDS011;23490;53.656;10.076;2023-05-10T15:17:07;5.63;;;4.40;;
37647;SDS011;23490;53.656;10.076;2023-05-10T15:19:33;5.28;;;3.83;;
37647;SDS011;23490;53.656;10.076;2023-05-10T15:21:58;5.38;;;3.42;;
37647;SDS011;23490;53.656;10.076;2023-05-10T15:24:24;4.88;;;3.47;;
37647;SDS011;23490;53.656;10.076;2023-05-10T15:26:50;5.95;;;3.63;;